createdAt,value
2017-09-20T00:00:05.944Z,48.4
2017-09-20T00:02:08.206Z,48.4
2017-09-20T00:04:05.912Z,48.4
2017-09-20T00:06:05.627Z,48.3
2017-09-20T00:08:05.538Z,48.3
2017-09-20T00:10:07.723Z,48.4
2017-09-20T00:12:08.017Z,48.4
2017-09-20T00:14:05.821Z,48.4
2017-09-20T00:16:10.574Z,48.4
2017-09-20T00:18:05.557Z,48.4
2017-09-20T00:20:05.428Z,48.4
2017-09-20T00:22:05.731Z,48.4
2017-09-20T00:24:05.497Z,48.4
2017-09-20T00:26:05.306Z,48.4
2017-09-20T00:28:05.984Z,48.4
2017-09-20T00:30:05.283Z,48.4
2017-09-20T00:32:06.044Z,48.4
2017-09-20T00:34:08.345Z,48.4
2017-09-20T00:36:05.049Z,48.4
2017-09-20T00:38:05.889Z,48.4
2017-09-20T00:40:05.174Z,48.4
2017-09-20T00:42:08.427Z,48.4
2017-09-20T00:44:05.683Z,48.4
2017-09-20T00:46:08.435Z,48.4
2017-09-20T00:48:05.128Z,48.4
2017-09-20T00:50:05.964Z,48.4
2017-09-20T00:52:05.656Z,48.4
2017-09-20T00:54:05.897Z,48.4
2017-09-20T00:56:05.308Z,48.4
2017-09-20T00:58:06.083Z,48.4
2017-09-20T01:00:05.793Z,48.4
2017-09-20T01:02:08.374Z,48.4
2017-09-20T01:04:07.650Z,48.5
2017-09-20T01:06:05.384Z,48.4
2017-09-20T01:08:05.239Z,48.4
2017-09-20T01:10:11.019Z,48.5
2017-09-20T01:12:08.245Z,48.4
2017-09-20T01:14:05.643Z,48.4
2017-09-20T01:16:05.912Z,48.4
2017-09-20T01:18:10.934Z,48.4
2017-09-20T01:20:05.368Z,48.4
2017-09-20T01:22:07.755Z,48.5
2017-09-20T01:24:05.442Z,48.5
2017-09-20T01:26:05.245Z,48.5
2017-09-20T01:28:06.090Z,48.5
2017-09-20T01:30:05.849Z,48.5
2017-09-20T01:32:05.887Z,48.5
2017-09-20T01:34:05.591Z,48.5
2017-09-20T01:36:05.338Z,48.5
2017-09-20T01:38:05.072Z,48.5
2017-09-20T01:40:05.777Z,48.5
2017-09-20T01:42:05.474Z,48.5
2017-09-20T01:44:05.301Z,48.5
2017-09-20T01:46:06.082Z,48.5
2017-09-20T01:48:05.312Z,48.5
2017-09-20T01:50:06.390Z,48.5
2017-09-20T01:52:05.137Z,48.5
2017-09-20T01:54:05.849Z,48.5
2017-09-20T01:56:05.170Z,48.5
2017-09-20T01:58:08.478Z,48.5
2017-09-20T02:00:05.434Z,48.5
2017-09-20T02:02:05.166Z,48.6
2017-09-20T02:04:05.909Z,48.5
2017-09-20T02:06:05.143Z,48.5
2017-09-20T02:08:08.472Z,48.6
2017-09-20T02:10:05.192Z,48.6
2017-09-20T02:12:08.007Z,48.6
2017-09-20T02:14:05.415Z,48.3
2017-09-20T02:16:12.361Z,48.6
2017-09-20T02:18:05.265Z,48.6
2017-09-20T02:20:05.994Z,48.6
2017-09-20T02:22:08.298Z,48.6
2017-09-20T02:24:05.652Z,48.6
2017-09-20T02:26:05.469Z,48.6
2017-09-20T02:28:08.185Z,48.6
2017-09-20T02:30:06.009Z,48.4
2017-09-20T02:32:06.154Z,48.6
2017-09-20T02:34:05.849Z,48.6
2017-09-20T02:36:05.611Z,48.4
2017-09-20T02:38:08.170Z,48.4
2017-09-20T02:40:05.836Z,48.4
2017-09-20T02:42:05.562Z,48.6
2017-09-20T02:44:05.366Z,48.6
2017-09-20T02:46:05.588Z,48.5
2017-09-20T02:48:05.472Z,48.7
2017-09-20T02:50:05.255Z,48.7
2017-09-20T02:52:05.973Z,48.5
2017-09-20T02:54:05.675Z,48.7
2017-09-20T02:56:10.390Z,48.7
2017-09-20T02:58:05.121Z,48.5
2017-09-20T03:00:06.168Z,48.7
2017-09-20T03:02:06.029Z,48.5
2017-09-20T03:04:10.815Z,48.5
2017-09-20T03:06:05.540Z,48.5
2017-09-20T03:08:05.451Z,48.7
2017-09-20T03:10:07.712Z,48.5
2017-09-20T03:12:07.915Z,48.5
2017-09-20T03:14:05.656Z,48.5
2017-09-20T03:16:05.375Z,48.5
2017-09-20T03:18:05.555Z,48.5
2017-09-20T03:20:05.319Z,48.5
2017-09-20T03:22:05.020Z,48.5
2017-09-20T03:24:05.820Z,48.5
2017-09-20T03:26:05.718Z,48.7
2017-09-20T03:28:05.444Z,48.5
2017-09-20T03:30:05.175Z,48.5
2017-09-20T03:32:05.710Z,48.6
2017-09-20T03:34:05.552Z,48.6
2017-09-20T03:36:05.489Z,48.5
2017-09-20T03:38:10.967Z,48.5
2017-09-20T03:40:08.195Z,48.5
2017-09-20T03:42:05.574Z,48.5
2017-09-20T03:44:05.628Z,48.6
2017-09-20T03:46:05.342Z,48.5
2017-09-20T03:48:08.079Z,48.6
2017-09-20T03:50:05.816Z,48.6
2017-09-20T03:52:08.119Z,48.6
2017-09-20T03:54:08.317Z,48.6
2017-09-20T03:56:05.240Z,48.6
2017-09-20T03:58:06.031Z,48.6
2017-09-20T04:00:05.752Z,48.6
2017-09-20T04:02:05.608Z,48.7
2017-09-20T04:04:05.368Z,48.7
2017-09-20T04:06:05.036Z,48.7
2017-09-20T04:08:06.169Z,48.7
2017-09-20T04:10:05.422Z,48.7
2017-09-20T04:12:05.138Z,48.7
2017-09-20T04:14:11.017Z,48.7
2017-09-20T04:16:08.255Z,48.7
2017-09-20T04:18:05.150Z,48.7
2017-09-20T04:20:06.039Z,48.7
2017-09-20T04:22:05.715Z,48.7
2017-09-20T04:24:10.622Z,48.7
2017-09-20T04:26:23.999Z,48.2
2017-09-20T04:28:11.712Z,48.7
2017-09-20T04:30:05.550Z,49.2
2017-09-20T04:32:07.802Z,48.7
2017-09-20T04:34:08.009Z,48.7
2017-09-20T04:36:08.333Z,48.7
2017-09-20T04:38:05.327Z,48.7
2017-09-20T04:40:05.238Z,48.7
2017-09-20T04:42:05.965Z,48.7
2017-09-20T04:44:05.696Z,48.7
2017-09-20T04:46:05.382Z,48.7
2017-09-20T04:48:05.137Z,48.7
2017-09-20T04:50:06.270Z,48.8
2017-09-20T04:52:05.976Z,48.7
2017-09-20T04:54:08.231Z,48.7
2017-09-20T04:56:05.854Z,48.7
2017-09-20T04:58:05.555Z,48.8
2017-09-20T05:00:05.316Z,48.7
2017-09-20T05:02:05.207Z,48.8
2017-09-20T05:04:08.030Z,48.7
2017-09-20T05:06:05.702Z,48.7
2017-09-20T05:08:05.406Z,48.8
2017-09-20T05:10:05.109Z,48.7
2017-09-20T05:12:08.418Z,48.7
2017-09-20T05:14:05.345Z,48.7
2017-09-20T05:16:05.053Z,48.8
2017-09-20T05:18:05.930Z,48.8
2017-09-20T05:20:05.698Z,48.8
2017-09-20T05:22:05.485Z,48.8
2017-09-20T05:24:05.689Z,48.8
2017-09-20T05:26:05.710Z,48.8
2017-09-20T05:28:05.998Z,48.6
2017-09-20T05:30:05.774Z,48.8
2017-09-20T05:32:05.375Z,48.8
2017-09-20T05:34:05.118Z,48.9
2017-09-20T05:36:05.925Z,48.9
2017-09-20T05:38:05.945Z,48.9
2017-09-20T05:40:08.235Z,48.9
2017-09-20T05:42:05.918Z,48.9
2017-09-20T05:44:05.957Z,48.9
2017-09-20T05:46:08.216Z,49
2017-09-20T05:48:05.961Z,48.7
2017-09-20T05:50:05.806Z,48.9
2017-09-20T05:52:05.504Z,49
2017-09-20T05:54:05.325Z,49
2017-09-20T05:56:08.215Z,49
2017-09-20T05:58:05.890Z,49
2017-09-20T06:00:05.712Z,49
2017-09-20T06:02:08.091Z,48.9
2017-09-20T06:04:05.831Z,48.9
2017-09-20T06:06:05.558Z,49
2017-09-20T06:08:06.183Z,49
2017-09-20T06:10:10.902Z,49
2017-09-20T06:12:05.584Z,49
2017-09-20T06:14:10.416Z,48.9
2017-09-20T06:16:05.669Z,48.7
2017-09-20T06:18:05.564Z,48.9
2017-09-20T06:20:11.005Z,49
2017-09-20T06:22:13.265Z,49
2017-09-20T06:24:05.993Z,49
2017-09-20T06:26:05.889Z,49
2017-09-20T06:28:13.212Z,49
2017-09-20T06:30:05.480Z,49
2017-09-20T06:32:07.888Z,48.9
2017-09-20T06:34:13.214Z,49
2017-09-20T06:36:13.479Z,48.9
2017-09-20T06:38:07.734Z,49
2017-09-20T06:40:05.520Z,49
2017-09-20T06:42:05.315Z,49
2017-09-20T06:44:05.653Z,49
2017-09-20T06:46:05.405Z,49
2017-09-20T06:48:10.318Z,49
2017-09-20T06:50:05.139Z,49
2017-09-20T06:52:05.814Z,49
2017-09-20T06:54:05.475Z,49
2017-09-20T06:56:05.216Z,48.8
2017-09-20T06:58:05.933Z,48.8
2017-09-20T07:00:05.182Z,48.9
2017-09-20T07:02:06.119Z,48.9
2017-09-20T07:04:05.930Z,48.9
2017-09-20T07:06:05.698Z,48.8
2017-09-20T07:08:09.003Z,48.8
2017-09-20T07:10:05.368Z,48.9
2017-09-20T07:12:06.042Z,48.8
2017-09-20T07:14:05.857Z,48.8
2017-09-20T07:16:05.571Z,48.9
2017-09-20T07:18:07.980Z,48.8
2017-09-20T07:20:07.761Z,48.9
2017-09-20T07:22:05.464Z,48.8
2017-09-20T07:24:05.164Z,48.8
2017-09-20T07:26:05.994Z,48.8
2017-09-20T07:28:05.685Z,48.9
2017-09-20T07:30:05.528Z,42.5
2017-09-20T07:32:07.768Z,48.9
2017-09-20T07:34:07.921Z,48.9
2017-09-20T07:36:05.136Z,48.9
2017-09-20T07:38:05.889Z,48.9
2017-09-20T07:40:05.601Z,48.9
2017-09-20T07:42:07.886Z,48.9
2017-09-20T07:44:05.285Z,48.9
2017-09-20T07:46:05.581Z,49.1
2017-09-20T07:48:05.398Z,49.2
2017-09-20T07:50:05.220Z,49.1
2017-09-20T07:52:06.066Z,49.1
2017-09-20T07:54:05.360Z,49
2017-09-20T07:56:07.820Z,49.2
2017-09-20T07:58:05.657Z,49.2
2017-09-20T08:00:05.355Z,49.2
2017-09-20T08:02:07.726Z,49.1
2017-09-20T08:04:05.449Z,49.2
2017-09-20T08:06:05.130Z,49.2
2017-09-20T08:08:06.027Z,49.1
2017-09-20T08:10:05.818Z,49.2
2017-09-20T08:12:05.689Z,49.4
2017-09-20T08:14:05.664Z,49.3
2017-09-20T08:16:05.347Z,49.4
2017-09-20T08:18:07.834Z,49.4
2017-09-20T08:20:05.674Z,49.4
2017-09-20T08:22:05.413Z,49.3
2017-09-20T08:24:10.221Z,49.5
2017-09-20T08:26:05.753Z,49.2
2017-09-20T08:28:05.480Z,49.4
2017-09-20T08:30:05.165Z,49.1
2017-09-20T08:32:08.410Z,49.1
2017-09-20T08:34:05.101Z,49.1
2017-09-20T08:36:05.363Z,49.2
2017-09-20T08:38:05.246Z,49.5
2017-09-20T08:40:07.201Z,49.6
2017-09-20T08:42:06.364Z,49.5
2017-09-20T08:44:08.187Z,49.4
2017-09-20T08:46:05.294Z,49.4
2017-09-20T08:48:07.600Z,49.5
2017-09-20T08:50:10.478Z,49.4
2017-09-20T08:52:20.904Z,49.6
2017-09-20T08:54:05.634Z,49.3
2017-09-20T08:56:06.035Z,49.3
2017-09-20T08:58:12.848Z,49.3
2017-09-20T09:00:05.633Z,49.3
2017-09-20T09:02:05.947Z,49.3
2017-09-20T09:04:08.190Z,49.5
2017-09-20T09:06:05.920Z,49.5
2017-09-20T09:08:05.955Z,49.5
2017-09-20T09:10:05.654Z,49.5
2017-09-20T09:12:10.437Z,49.5
2017-09-20T09:14:05.328Z,49.5
2017-09-20T09:16:05.039Z,49.5
2017-09-20T09:18:05.963Z,49.5
2017-09-20T09:20:05.684Z,49.5
2017-09-20T09:22:05.959Z,49.5
2017-09-20T09:24:08.150Z,49.5
2017-09-20T09:26:06.069Z,49.5
2017-09-20T09:28:10.810Z,49.5
2017-09-20T09:30:05.518Z,49.5
2017-09-20T09:32:05.327Z,49.5
2017-09-20T09:34:05.060Z,49.5
2017-09-20T09:36:05.315Z,49.3
2017-09-20T09:38:05.683Z,49.4
2017-09-20T09:40:10.557Z,49.5
2017-09-20T09:42:05.289Z,49.5
2017-09-20T09:44:05.956Z,49.8
2017-09-20T09:46:08.235Z,49.9
2017-09-20T09:48:08.024Z,50
2017-09-20T09:50:10.845Z,49.6
2017-09-20T09:52:10.636Z,49.5
2017-09-20T09:54:05.368Z,49.3
2017-09-20T09:56:05.172Z,49.4
2017-09-20T09:58:05.855Z,49.3
2017-09-20T10:00:05.634Z,49.3
2017-09-20T10:02:06.022Z,49.1
2017-09-20T10:04:05.741Z,49.2
2017-09-20T10:06:15.657Z,49.1
2017-09-20T10:08:08.101Z,49.1
2017-09-20T10:10:05.827Z,49.1
2017-09-20T10:12:05.819Z,49.2
2017-09-20T10:14:05.669Z,49.2
2017-09-20T10:16:05.556Z,49
2017-09-20T10:18:13.076Z,49.2
2017-09-20T10:20:18.365Z,49.1
2017-09-20T10:22:10.211Z,49.3
2017-09-20T10:24:06.129Z,49.2
2017-09-20T10:26:05.113Z,49.3
2017-09-20T10:28:06.153Z,49.3
2017-09-20T10:30:05.132Z,49.3
2017-09-20T10:32:06.641Z,49.4
2017-09-20T10:34:09.131Z,49.2
2017-09-20T10:36:05.886Z,49.2
2017-09-20T10:38:10.350Z,49.3
2017-09-20T10:40:05.035Z,49.3
2017-09-20T10:42:05.811Z,49.3
2017-09-20T10:44:05.680Z,49.3
2017-09-20T10:46:05.415Z,49.3
2017-09-20T10:48:05.844Z,49.3
2017-09-20T10:50:05.760Z,49.3
2017-09-20T10:52:05.419Z,49.5
2017-09-20T10:54:05.147Z,49.7
2017-09-20T10:56:06.031Z,49.6
2017-09-20T10:58:08.228Z,49.8
2017-09-20T11:00:05.888Z,49.8
2017-09-20T11:02:08.238Z,49.9
2017-09-20T11:04:05.465Z,50
2017-09-20T11:06:05.287Z,50.2
2017-09-20T11:08:06.088Z,50.4
2017-09-20T11:10:05.733Z,50.4
2017-09-20T11:12:05.435Z,50.9
2017-09-20T11:14:05.436Z,50.7
2017-09-20T11:16:05.172Z,51.2
2017-09-20T11:18:05.127Z,51.5
2017-09-20T11:20:05.996Z,51.9
2017-09-20T11:22:05.723Z,52.1
2017-09-20T11:24:05.423Z,52
2017-09-20T11:26:05.226Z,52.2
2017-09-20T11:28:05.948Z,52.3
2017-09-20T11:30:05.804Z,52.3
2017-09-20T11:32:05.776Z,52.3
2017-09-20T11:34:05.519Z,52.3
2017-09-20T11:36:07.751Z,52.6
2017-09-20T11:38:05.848Z,52.5
2017-09-20T11:40:05.253Z,52.5
2017-09-20T11:42:05.969Z,52.3
2017-09-20T11:44:05.373Z,52.2
2017-09-20T11:46:05.103Z,52.1
2017-09-20T11:48:08.349Z,52.1
2017-09-20T11:50:05.201Z,52.1
2017-09-20T11:52:08.506Z,52.1
2017-09-20T11:54:05.702Z,52.1
2017-09-20T11:56:06.043Z,52.1
2017-09-20T11:58:05.698Z,52.1
2017-09-20T12:00:05.406Z,52
2017-09-20T12:02:05.515Z,52
2017-09-20T12:04:12.794Z,51.7
2017-09-20T12:06:05.525Z,51.7
2017-09-20T12:08:05.523Z,51.7
2017-09-20T12:10:10.313Z,51.6
2017-09-20T12:12:05.089Z,51.6
2017-09-20T12:14:10.986Z,51.6
2017-09-20T12:16:05.686Z,51.6
2017-09-20T12:18:05.118Z,51.6
2017-09-20T12:20:21.133Z,51.6
2017-09-20T12:22:05.819Z,51.6
2017-09-20T12:24:05.202Z,51.6
2017-09-20T12:26:06.264Z,51.6
2017-09-20T12:28:05.131Z,51.5
2017-09-20T12:30:05.865Z,51.5
2017-09-20T12:32:05.598Z,51.5
2017-09-20T12:34:05.644Z,51.5
2017-09-20T12:36:05.598Z,51.6
2017-09-20T12:38:08.188Z,51.5
2017-09-20T12:40:05.932Z,51.5
2017-09-20T12:42:05.712Z,51.5
2017-09-20T12:44:05.584Z,51.4
2017-09-20T12:46:05.414Z,51.4
2017-09-20T12:48:05.184Z,51.4
2017-09-20T12:50:06.047Z,51.4
2017-09-20T12:52:08.301Z,51.2
2017-09-20T12:54:05.010Z,51.4
2017-09-20T12:56:05.564Z,51.4
2017-09-20T12:58:05.299Z,51.3
2017-09-20T13:00:06.024Z,47.6
2017-09-20T13:02:07.955Z,47.3
2017-09-20T13:04:05.772Z,47.3
2017-09-20T13:06:05.021Z,47.5
2017-09-20T13:08:10.809Z,47.3
2017-09-20T13:10:05.568Z,47.4
2017-09-20T13:12:05.391Z,47.3
2017-09-20T13:14:05.176Z,47.3
2017-09-20T13:16:05.873Z,47.3
2017-09-20T13:18:08.330Z,47.2
2017-09-20T13:20:07.562Z,47.1
2017-09-20T13:22:05.316Z,47.1
2017-09-20T13:24:05.002Z,47.1
2017-09-20T13:26:08.387Z,47.1
2017-09-20T13:28:08.302Z,47
2017-09-20T13:30:07.650Z,47.1
2017-09-20T13:32:08.230Z,47
2017-09-20T13:34:06.010Z,47
2017-09-20T13:36:05.854Z,47
2017-09-20T13:38:08.336Z,47
2017-09-20T13:40:07.608Z,46.9
2017-09-20T13:42:05.342Z,46.9
2017-09-20T13:44:07.976Z,46.8
2017-09-20T13:46:08.214Z,46.8
2017-09-20T13:48:06.078Z,46.8
2017-09-20T13:50:05.329Z,46.8
2017-09-20T13:52:05.057Z,46.8
2017-09-20T13:54:05.775Z,46.8
2017-09-20T13:56:08.429Z,46.7
2017-09-20T13:58:05.699Z,46.7
2017-09-20T14:00:05.415Z,46.8
2017-09-20T14:02:05.276Z,46.7
2017-09-20T14:04:13.574Z,46.7
2017-09-20T14:06:05.453Z,46.7
2017-09-20T14:08:05.343Z,46.7
2017-09-20T14:10:07.627Z,46.7
2017-09-20T14:12:10.351Z,46.7
2017-09-20T14:14:05.187Z,46.7
2017-09-20T14:16:05.928Z,46.7
2017-09-20T14:18:05.848Z,46.6
2017-09-20T14:20:05.732Z,46.6
2017-09-20T14:22:05.453Z,46.6
2017-09-20T14:24:05.189Z,46.6
2017-09-20T14:26:06.112Z,46.6
2017-09-20T14:28:05.435Z,46.6
2017-09-20T14:30:05.745Z,46.6
2017-09-20T14:32:05.648Z,46.6
2017-09-20T14:34:05.362Z,46.6
2017-09-20T14:36:05.110Z,46.6
2017-09-20T14:38:05.928Z,46.6
2017-09-20T14:40:05.166Z,46.6
2017-09-20T14:42:05.924Z,46.6
2017-09-20T14:44:05.253Z,46.6
2017-09-20T14:46:05.033Z,46.6
2017-09-20T14:48:05.882Z,46.6
2017-09-20T14:50:08.319Z,46.6
2017-09-20T14:52:05.037Z,46.6
2017-09-20T14:54:05.781Z,46.6
2017-09-20T14:56:05.537Z,46.8
2017-09-20T14:58:05.211Z,46.6
2017-09-20T15:00:05.436Z,46.8
2017-09-20T15:02:07.803Z,46.7
2017-09-20T15:04:05.641Z,46.6
2017-09-20T15:06:05.362Z,46.6
2017-09-20T15:08:07.669Z,46.6
2017-09-20T15:10:05.392Z,46.6
2017-09-20T15:12:05.087Z,46.6
2017-09-20T15:14:08.018Z,46.8
2017-09-20T15:16:05.744Z,46.8
2017-09-20T15:18:05.671Z,47
2017-09-20T15:20:05.557Z,47
2017-09-20T15:22:05.855Z,46.8
2017-09-20T15:24:10.644Z,46.7
2017-09-20T15:26:05.733Z,46.8
2017-09-20T15:28:06.617Z,46.7
2017-09-20T15:30:05.275Z,46.7
2017-09-20T15:32:09.463Z,46.6
2017-09-20T15:34:07.049Z,46.6
2017-09-20T15:36:06.022Z,46.6
2017-09-20T15:38:08.982Z,46.8
2017-09-20T15:40:06.564Z,46.8
2017-09-20T15:42:05.229Z,46.7
2017-09-20T15:44:08.658Z,46.9
2017-09-20T15:46:05.583Z,46.7
2017-09-20T15:48:07.882Z,47
2017-09-20T15:50:06.234Z,46.9
2017-09-20T15:52:05.833Z,46.7
2017-09-20T15:54:08.135Z,47
2017-09-20T15:56:05.877Z,47
2017-09-20T15:58:08.133Z,46.9
2017-09-20T16:00:05.365Z,46.9
2017-09-20T16:02:05.116Z,46.9
2017-09-20T16:04:08.550Z,47
2017-09-20T16:06:11.284Z,47
2017-09-20T16:08:09.607Z,47.1
2017-09-20T16:10:05.837Z,47.1
2017-09-20T16:12:08.063Z,47.2
2017-09-20T16:14:05.781Z,47.2
2017-09-20T16:16:05.487Z,47.2
2017-09-20T16:18:05.367Z,47.2
2017-09-20T16:20:12.779Z,47.2
2017-09-20T16:22:08.549Z,47.3
2017-09-20T16:24:05.428Z,47.3
2017-09-20T16:26:05.150Z,47.3
2017-09-20T16:28:05.857Z,47.3
2017-09-20T16:30:08.138Z,47.3
2017-09-20T16:32:06.071Z,47.3
2017-09-20T16:34:05.766Z,47.1
2017-09-20T16:36:08.010Z,47.1
2017-09-20T16:38:05.967Z,47.3
2017-09-20T16:40:05.853Z,47.4
2017-09-20T16:42:05.508Z,47.3
2017-09-20T16:44:05.412Z,47.1
2017-09-20T16:46:05.136Z,47.1
2017-09-20T16:48:07.892Z,47
2017-09-20T16:50:08.308Z,47.1
2017-09-20T16:52:05.524Z,47.1
2017-09-20T16:54:07.885Z,47.1
2017-09-20T16:56:05.904Z,47.1
2017-09-20T16:58:05.588Z,47.1
2017-09-20T17:00:05.289Z,47.1
2017-09-20T17:02:06.020Z,47.1
2017-09-20T17:04:05.734Z,47.1
2017-09-20T17:06:08.507Z,47.1
2017-09-20T17:08:07.919Z,47.1
2017-09-20T17:10:08.150Z,47.2
2017-09-20T17:12:06.012Z,47.1
2017-09-20T17:14:05.896Z,47.2
2017-09-20T17:16:05.634Z,47.1
2017-09-20T17:18:05.602Z,47.2
2017-09-20T17:20:05.505Z,47.2
2017-09-20T17:22:05.921Z,47.2
2017-09-20T17:24:05.606Z,47.3
2017-09-20T17:26:05.362Z,47.2
2017-09-20T17:28:05.244Z,47.5
2017-09-20T17:30:06.172Z,47.8
2017-09-20T17:32:10.997Z,47.8
2017-09-20T17:34:05.224Z,47.8
2017-09-20T17:36:05.954Z,47.9
2017-09-20T17:38:10.393Z,48.1
2017-09-20T17:40:05.117Z,48.1
2017-09-20T17:42:05.842Z,48.1
2017-09-20T17:44:08.252Z,48.3
2017-09-20T17:46:05.941Z,48.3
2017-09-20T17:48:05.226Z,48.3
2017-09-20T17:50:05.514Z,48.3
2017-09-20T17:52:07.886Z,48.2
2017-09-20T17:54:05.621Z,48
2017-09-20T17:56:08.055Z,48.3
2017-09-20T17:58:08.306Z,48.4
2017-09-20T18:00:05.151Z,48.4
2017-09-20T18:02:08.060Z,48.3
2017-09-20T18:04:05.736Z,48.3
2017-09-20T18:06:05.429Z,48.2
2017-09-20T18:08:07.841Z,48.4
2017-09-20T18:10:05.613Z,48.4
2017-09-20T18:12:05.394Z,48.4
2017-09-20T18:14:15.626Z,48.4
2017-09-20T18:16:08.128Z,48.2
2017-09-20T18:18:04.997Z,48.2
2017-09-20T18:20:05.802Z,48.3
2017-09-20T18:22:08.052Z,48.2
2017-09-20T18:24:07.795Z,48.2
2017-09-20T18:26:05.593Z,48.3
2017-09-20T18:28:05.867Z,48.2
2017-09-20T18:30:05.775Z,48.3
2017-09-20T18:32:13.088Z,48.4
2017-09-20T18:34:05.776Z,48.3
2017-09-20T18:36:10.681Z,48.4
2017-09-20T18:38:08.187Z,48.4
2017-09-20T18:40:05.863Z,48.4
2017-09-20T18:42:06.558Z,48.4
2017-09-20T18:44:10.258Z,48.2
2017-09-20T18:46:05.962Z,48.5
2017-09-20T18:48:10.697Z,48.3
2017-09-20T18:50:05.806Z,48.2
2017-09-20T18:52:05.517Z,48.1
2017-09-20T18:54:07.754Z,48.1
2017-09-20T18:56:06.151Z,48.1
2017-09-20T18:58:05.834Z,48.2
2017-09-20T19:00:06.610Z,48.1
2017-09-20T19:02:10.388Z,48.4
2017-09-20T19:04:05.316Z,48.1
2017-09-20T19:06:06.781Z,48.1
2017-09-20T19:08:09.038Z,47.9
2017-09-20T19:10:05.776Z,47.9
2017-09-20T19:12:05.631Z,48
2017-09-20T19:14:05.499Z,48
2017-09-20T19:16:09.948Z,47.9
2017-09-20T19:18:06.550Z,48.1
2017-09-20T19:20:10.730Z,47.9
2017-09-20T19:22:05.517Z,47.8
2017-09-20T19:24:06.510Z,47.9
2017-09-20T19:26:07.874Z,47.8
2017-09-20T19:28:05.585Z,47.8
2017-09-20T19:30:05.331Z,47.9
2017-09-20T19:32:05.069Z,47.8
2017-09-20T19:34:09.315Z,47.8
2017-09-20T19:36:06.150Z,47.8
2017-09-20T19:38:08.400Z,47.7
2017-09-20T19:40:06.074Z,47.7
2017-09-20T19:42:05.894Z,47.7
2017-09-20T19:44:05.901Z,47.7
2017-09-20T19:46:05.154Z,47.8
2017-09-20T19:48:05.857Z,47.8
2017-09-20T19:50:05.769Z,47.9
2017-09-20T19:52:08.345Z,47.8
2017-09-20T19:54:05.568Z,47.8
2017-09-20T19:56:05.311Z,47.7
2017-09-20T19:58:08.791Z,47.8
2017-09-20T20:00:08.009Z,47.7
2017-09-20T20:02:05.844Z,47.5
2017-09-20T20:04:05.519Z,47.8
2017-09-20T20:06:05.223Z,47.9
2017-09-20T20:08:06.380Z,47.8
2017-09-20T20:10:11.429Z,47.7
2017-09-20T20:12:05.679Z,47.7
2017-09-20T20:14:09.522Z,47.8
2017-09-20T20:16:05.846Z,47.8
2017-09-20T20:18:06.011Z,47.8
2017-09-20T20:20:05.894Z,47.7
2017-09-20T20:22:05.628Z,47.8
2017-09-20T20:24:05.629Z,47.8
2017-09-20T20:26:06.511Z,47.7
2017-09-20T20:28:08.163Z,47.8
2017-09-20T20:30:05.896Z,47.8
2017-09-20T20:32:05.973Z,47.7
2017-09-20T20:34:05.747Z,47.7
2017-09-20T20:36:08.506Z,47.7
2017-09-20T20:38:05.616Z,47.7
2017-09-20T20:40:16.037Z,47.7
2017-09-20T20:42:05.797Z,47.7
2017-09-20T20:44:05.627Z,47.8
2017-09-20T20:46:05.845Z,47.8
2017-09-20T20:48:05.303Z,47.8
2017-09-20T20:50:06.122Z,47.8
2017-09-20T20:52:05.790Z,47.8
2017-09-20T20:54:08.056Z,47.8
2017-09-20T20:56:06.112Z,47.8
2017-09-20T20:58:05.824Z,47.8
2017-09-20T21:00:05.563Z,47.7
2017-09-20T21:02:07.955Z,47.6
2017-09-20T21:04:05.693Z,47.6
2017-09-20T21:06:05.900Z,47.6
2017-09-20T21:08:05.733Z,47.6
2017-09-20T21:10:05.437Z,47.6
2017-09-20T21:12:05.204Z,47.6
2017-09-20T21:14:05.928Z,47.5
2017-09-20T21:16:05.195Z,47.5
2017-09-20T21:18:05.118Z,47.5
2017-09-20T21:20:05.945Z,47.5
2017-09-20T21:22:05.713Z,47.5
2017-09-20T21:24:10.484Z,47.4
2017-09-20T21:26:07.786Z,47.4
2017-09-20T21:28:06.051Z,47.4
2017-09-20T21:30:10.839Z,47.3
2017-09-20T21:32:05.600Z,47.3
2017-09-20T21:34:05.334Z,47.3
2017-09-20T21:36:05.540Z,47.3
2017-09-20T21:38:05.491Z,47.3
2017-09-20T21:40:05.177Z,47.3
2017-09-20T21:42:05.880Z,47.2
2017-09-20T21:44:05.237Z,47.2
2017-09-20T21:46:05.556Z,47.2
2017-09-20T21:48:05.328Z,47.3
2017-09-20T21:50:05.323Z,47.2
2017-09-20T21:52:05.617Z,47.2
2017-09-20T21:54:05.348Z,47.2
2017-09-20T21:56:07.618Z,47.2
2017-09-20T21:58:07.875Z,47.2
2017-09-20T22:00:05.682Z,47.2
2017-09-20T22:02:05.420Z,47.2
2017-09-20T22:04:05.148Z,47.2
2017-09-20T22:06:05.842Z,47.1
2017-09-20T22:08:05.964Z,47.2
2017-09-20T22:10:10.758Z,47.2
2017-09-20T22:12:05.567Z,47.1
2017-09-20T22:14:05.344Z,47.1
2017-09-20T22:16:07.605Z,47.1
2017-09-20T22:18:07.982Z,47.3
2017-09-20T22:20:08.359Z,47.2
2017-09-20T22:22:05.065Z,47.1
2017-09-20T22:24:05.825Z,47.4
2017-09-20T22:26:05.228Z,47.2
2017-09-20T22:28:08.449Z,47.1
2017-09-20T22:30:05.171Z,47.1
2017-09-20T22:32:08.113Z,47.1
2017-09-20T22:34:05.915Z,47.1
2017-09-20T22:36:05.632Z,47.1
2017-09-20T22:38:05.454Z,47.1
2017-09-20T22:40:10.318Z,47.1
2017-09-20T22:42:05.045Z,47.1
2017-09-20T22:44:06.058Z,47.1
2017-09-20T22:46:05.411Z,47.1
2017-09-20T22:48:05.332Z,47.1
2017-09-20T22:50:05.118Z,47.1
2017-09-20T22:52:08.391Z,46.9
2017-09-20T22:54:05.103Z,47.1
2017-09-20T22:56:06.143Z,46.9
2017-09-20T22:58:05.826Z,46.9
2017-09-20T23:00:05.469Z,46.9
2017-09-20T23:02:07.718Z,47
2017-09-20T23:04:08.278Z,47
2017-09-20T23:06:06.037Z,46.9
2017-09-20T23:08:05.734Z,46.9
2017-09-20T23:10:11.022Z,46.9
2017-09-20T23:12:05.731Z,46.9
2017-09-20T23:14:06.133Z,47
2017-09-20T23:16:06.141Z,46.9
2017-09-20T23:18:10.171Z,46.9
2017-09-20T23:20:06.416Z,46.9
2017-09-20T23:22:05.132Z,46.9
2017-09-20T23:24:05.837Z,46.9
2017-09-20T23:26:05.691Z,46.9
2017-09-20T23:28:07.912Z,46.9
2017-09-20T23:30:05.590Z,46.9
2017-09-20T23:32:05.391Z,46.9
2017-09-20T23:34:05.227Z,47
2017-09-20T23:36:06.058Z,46.9
2017-09-20T23:38:08.602Z,47
2017-09-20T23:40:05.358Z,46.8
2017-09-20T23:42:05.065Z,47
2017-09-20T23:44:06.078Z,47
2017-09-20T23:46:05.840Z,47
2017-09-20T23:48:05.579Z,47
2017-09-20T23:50:07.866Z,46.7
2017-09-20T23:52:05.628Z,46.8
2017-09-20T23:54:05.319Z,46.8
2017-09-20T23:56:06.367Z,46.8
2017-09-20T23:58:05.108Z,46.8
